createdAt,value
2019-02-25T00:00:46.631Z,-4.68
2019-02-25T00:01:46.856Z,-4.9
2019-02-25T00:02:46.509Z,-4.73
2019-02-25T00:03:46.866Z,-4.73
2019-02-25T00:04:46.697Z,-4.7
2019-02-25T00:05:46.667Z,-4.7
2019-02-25T00:06:46.628Z,-4.68
2019-02-25T00:07:48.090Z,-4.68
2019-02-25T00:08:46.673Z,-4.76
2019-02-25T00:09:46.699Z,-4.76
2019-02-25T00:10:47.084Z,-4.8
2019-02-25T00:11:46.716Z,-4.78
2019-02-25T00:12:48.480Z,-4.74
2019-02-25T00:13:46.706Z,-4.74
2019-02-25T00:14:46.782Z,-4.71
2019-02-25T00:15:46.628Z,-4.74
2019-02-25T00:16:46.768Z,-4.74
2019-02-25T00:17:46.920Z,-4.86
2019-02-25T00:18:46.643Z,-4.8
2019-02-25T00:19:46.764Z,-4.73
2019-02-25T00:20:46.609Z,-4.77
2019-02-25T00:21:47.547Z,-4.77
2019-02-25T00:22:46.948Z,-4.82
2019-02-25T00:23:46.683Z,-4.89
2019-02-25T00:24:46.614Z,-4.91
2019-02-25T00:25:46.659Z,-4.72
2019-02-25T00:26:46.983Z,-4.92
2019-02-25T00:27:46.713Z,-4.67
2019-02-25T00:28:46.625Z,-4.64
2019-02-25T00:29:47.401Z,-4.68
2019-02-25T00:30:47.515Z,-4.82
2019-02-25T00:31:47.006Z,-4.88
2019-02-25T00:32:47.724Z,-4.94
2019-02-25T00:33:46.700Z,-4.73
2019-02-25T00:34:46.827Z,-4.69
2019-02-25T00:35:47.144Z,-4.84
2019-02-25T00:36:46.817Z,-4.86
2019-02-25T00:37:46.705Z,-4.78
2019-02-25T00:38:46.841Z,-5.06
2019-02-25T00:39:46.578Z,-5.02
2019-02-25T00:40:46.687Z,-4.89
2019-02-25T00:41:46.917Z,-4.86
2019-02-25T00:42:47.052Z,-4.75
2019-02-25T00:43:46.715Z,-4.89
2019-02-25T00:44:46.617Z,-5
2019-02-25T00:45:46.803Z,-5.12
2019-02-25T00:46:46.574Z,-5.12
2019-02-25T00:47:46.661Z,-5.28
2019-02-25T00:48:46.912Z,-5.32
2019-02-25T00:49:47.225Z,-5.31
2019-02-25T00:50:48.424Z,-5.33
2019-02-25T00:51:47.646Z,-5.37
2019-02-25T00:52:46.686Z,-4.98
2019-02-25T00:53:46.590Z,-4.93
2019-02-25T00:54:46.718Z,-4.95
2019-02-25T00:55:46.672Z,-4.74
2019-02-25T00:56:46.629Z,-4.78
2019-02-25T00:57:46.562Z,-4.8
2019-02-25T00:58:46.557Z,-4.82
2019-02-25T00:59:46.898Z,-4.94
2019-02-25T01:00:47.115Z,-4.92
2019-02-25T01:01:46.659Z,-4.99
2019-02-25T01:02:46.630Z,-5.08
2019-02-25T01:03:46.608Z,-4.99
2019-02-25T01:04:46.859Z,-4.94
2019-02-25T01:05:46.656Z,-4.88
2019-02-25T01:06:47.283Z,-4.81
2019-02-25T01:07:46.905Z,-4.77
2019-02-25T01:08:46.632Z,-4.73
2019-02-25T01:09:46.666Z,-4.73
2019-02-25T01:10:46.720Z,-4.78
2019-02-25T01:11:48.386Z,-4.77
2019-02-25T01:12:47.315Z,-4.78
2019-02-25T01:13:47.476Z,-4.8
2019-02-25T01:14:46.619Z,-4.82
2019-02-25T01:15:46.777Z,-4.85
2019-02-25T01:16:46.647Z,-4.95
2019-02-25T01:17:46.690Z,-4.88
2019-02-25T01:18:46.643Z,-4.88
2019-02-25T01:19:46.819Z,-5.27
2019-02-25T01:20:47.116Z,-5.24
2019-02-25T01:21:48.365Z,-5.28
2019-02-25T01:22:47.396Z,-5.37
2019-02-25T01:23:46.601Z,-5.39
2019-02-25T01:24:47.447Z,-5.36
2019-02-25T01:25:46.743Z,-5.32
2019-02-25T01:26:46.863Z,-5.41
2019-02-25T01:27:48.362Z,-5.27
2019-02-25T01:28:47.069Z,-5.23
2019-02-25T01:29:48.374Z,-5.19
2019-02-25T01:30:46.777Z,-5.41
2019-02-25T01:31:46.535Z,-5.46
2019-02-25T01:32:47.179Z,-5.51
2019-02-25T01:33:46.477Z,-5.58
2019-02-25T01:34:47.465Z,-5.55
2019-02-25T01:35:46.336Z,-5.45
2019-02-25T01:36:46.319Z,-5.57
2019-02-25T01:37:46.322Z,-5.39
2019-02-25T01:38:46.334Z,-5.5
2019-02-25T01:39:46.332Z,-5.45
2019-02-25T01:40:46.759Z,-5.59
2019-02-25T01:41:46.610Z,-5.69
2019-02-25T01:42:47.387Z,-5.68
2019-02-25T01:43:48.394Z,-5.71
2019-02-25T01:44:46.327Z,-5.5
2019-02-25T01:45:46.312Z,-5.43
2019-02-25T01:46:46.570Z,-5.16
2019-02-25T01:47:47.413Z,-5.23
2019-02-25T01:48:46.495Z,-5.22
2019-02-25T01:49:46.565Z,-5.26
2019-02-25T01:50:46.727Z,-5.17
2019-02-25T01:51:46.779Z,-5.24
2019-02-25T01:52:47.252Z,-5.22
2019-02-25T01:53:46.581Z,-5.24
2019-02-25T01:54:46.466Z,-5.26
2019-02-25T01:55:46.945Z,-5.4
2019-02-25T01:56:47.582Z,-5.42
2019-02-25T01:57:46.539Z,-5.3
2019-02-25T01:58:47.166Z,-5.12
2019-02-25T01:59:46.469Z,-5.09
2019-02-25T02:00:46.569Z,-5.2
2019-02-25T02:01:46.479Z,-5.12
2019-02-25T02:02:47.450Z,-5.05
2019-02-25T02:03:46.580Z,-5.01
2019-02-25T02:04:46.521Z,-5.02
2019-02-25T02:05:46.461Z,-5
2019-02-25T02:06:48.250Z,-5
2019-02-25T02:07:46.472Z,-4.95
2019-02-25T02:08:46.779Z,-4.95
2019-02-25T02:09:46.741Z,-5
2019-02-25T02:10:46.742Z,-4.98
2019-02-25T02:11:46.560Z,-5.03
2019-02-25T02:12:46.459Z,-5.03
2019-02-25T02:13:46.518Z,-5.12
2019-02-25T02:14:46.652Z,-5.07
2019-02-25T02:15:48.299Z,-5.17
2019-02-25T02:16:46.693Z,-5.13
2019-02-25T02:17:48.296Z,-5.11
2019-02-25T02:18:47.212Z,-5.1
2019-02-25T02:19:47.305Z,-5.13
2019-02-25T02:20:46.480Z,-5.05
2019-02-25T02:21:46.712Z,-5.1
2019-02-25T02:22:46.455Z,-5.13
2019-02-25T02:23:46.556Z,-5.04
2019-02-25T02:24:46.424Z,-5.09
2019-02-25T02:25:46.582Z,-5.06
2019-02-25T02:26:46.775Z,-5.01
2019-02-25T02:27:46.409Z,-5.04
2019-02-25T02:28:46.519Z,-4.96
2019-02-25T02:29:46.417Z,-4.95
2019-02-25T02:30:46.704Z,-4.92
2019-02-25T02:31:46.592Z,-4.95
2019-02-25T02:32:47.403Z,-4.93
2019-02-25T02:33:46.283Z,-4.91
2019-02-25T02:34:46.614Z,-4.98
2019-02-25T02:35:47.615Z,-4.95
2019-02-25T02:36:46.699Z,-4.95
2019-02-25T02:37:46.642Z,-4.99
2019-02-25T02:38:46.738Z,-4.99
2019-02-25T02:39:47.230Z,-4.92
2019-02-25T02:40:48.288Z,-4.87
2019-02-25T02:41:46.481Z,-4.84
2019-02-25T02:42:46.428Z,-4.8
2019-02-25T02:43:46.946Z,-4.83
2019-02-25T02:44:46.659Z,-4.81
2019-02-25T02:45:46.662Z,-4.81
2019-02-25T02:46:46.539Z,-4.83
2019-02-25T02:47:46.412Z,-4.91
2019-02-25T02:48:46.574Z,-4.88
2019-02-25T02:49:46.887Z,-4.87
2019-02-25T02:50:47.029Z,-4.86
2019-02-25T02:51:47.036Z,-4.87
2019-02-25T02:52:46.522Z,-4.88
2019-02-25T02:53:46.714Z,-4.91
2019-02-25T02:54:46.719Z,-4.81
2019-02-25T02:55:46.400Z,-4.78
2019-02-25T02:56:46.441Z,-4.76
2019-02-25T02:57:46.467Z,-4.83
2019-02-25T02:58:46.780Z,-4.86
2019-02-25T02:59:46.749Z,-4.82
2019-02-25T03:00:46.426Z,-4.83
2019-02-25T03:01:47.381Z,-4.88
2019-02-25T03:02:46.559Z,-4.95
2019-02-25T03:03:48.246Z,-4.95
2019-02-25T03:04:48.224Z,-5.01
2019-02-25T03:05:46.506Z,-5.01
2019-02-25T03:06:47.231Z,-4.97
2019-02-25T03:07:46.803Z,-4.91
2019-02-25T03:08:46.594Z,-5.03
2019-02-25T03:09:46.733Z,-5.03
2019-02-25T03:10:46.494Z,-5.02
2019-02-25T03:11:46.473Z,-5.12
2019-02-25T03:12:46.539Z,-5.09
2019-02-25T03:13:46.445Z,-5.13
2019-02-25T03:14:46.761Z,-5.16
2019-02-25T03:15:46.778Z,-5.22
2019-02-25T03:16:46.776Z,-5.19
2019-02-25T03:17:46.681Z,-5.13
2019-02-25T03:18:47.094Z,-5.09
2019-02-25T03:19:46.450Z,-5.19
2019-02-25T03:20:46.562Z,-5.15
2019-02-25T03:21:47.043Z,-5.14
2019-02-25T03:22:47.045Z,-5.19
2019-02-25T03:23:47.244Z,-5.19
2019-02-25T03:24:46.641Z,-5.17
2019-02-25T03:25:46.349Z,-5.16
2019-02-25T03:26:46.524Z,-5.13
2019-02-25T03:27:46.494Z,-5.16
2019-02-25T03:28:46.644Z,-5.19
2019-02-25T03:29:46.644Z,-5.21
2019-02-25T03:30:48.221Z,-5.25
2019-02-25T03:31:46.897Z,-5.29
2019-02-25T03:32:46.460Z,-5.44
2019-02-25T03:33:46.470Z,-5.38
2019-02-25T03:34:46.438Z,-5.46
2019-02-25T03:35:46.462Z,-5.4
2019-02-25T03:36:46.635Z,-5.38
2019-02-25T03:37:46.908Z,-5.34
2019-02-25T03:38:46.329Z,-5.46
2019-02-25T03:39:46.466Z,-5.38
2019-02-25T03:40:46.335Z,-5.37
2019-02-25T03:41:46.155Z,-5.36
2019-02-25T03:42:46.453Z,-5.43
2019-02-25T03:43:46.349Z,-5.44
2019-02-25T03:44:47.251Z,-5.51
2019-02-25T03:45:47.166Z,-5.47
2019-02-25T03:46:46.424Z,-5.39
2019-02-25T03:47:46.419Z,-5.62
2019-02-25T03:48:46.683Z,-5.77
2019-02-25T03:49:46.676Z,-5.57
2019-02-25T03:50:46.438Z,-5.56
2019-02-25T03:51:46.365Z,-5.67
2019-02-25T03:52:46.593Z,-5.51
2019-02-25T03:53:48.179Z,-5.45
2019-02-25T03:54:46.432Z,-5.57
2019-02-25T03:55:46.554Z,-5.44
2019-02-25T03:56:46.462Z,-5.43
2019-02-25T03:57:46.387Z,-5.58
2019-02-25T03:58:47.778Z,-5.6
2019-02-25T03:59:46.747Z,-5.58
2019-02-25T04:00:46.539Z,-5.59
2019-02-25T04:01:46.689Z,-5.45
2019-02-25T04:02:46.674Z,-5.27
2019-02-25T04:03:47.152Z,-5.33
2019-02-25T04:04:48.123Z,-5.4
2019-02-25T04:05:46.315Z,-5.32
2019-02-25T04:06:47.212Z,-5.33
2019-02-25T04:07:46.349Z,-5.25
2019-02-25T04:08:46.500Z,-5.21
2019-02-25T04:09:46.548Z,-5.46
2019-02-25T04:10:46.556Z,-5.44
2019-02-25T04:11:46.620Z,-5.4
2019-02-25T04:12:46.470Z,-5.37
2019-02-25T04:13:46.832Z,-5.4
2019-02-25T04:14:46.348Z,-5.19
2019-02-25T04:15:46.468Z,-5.23
2019-02-25T04:16:46.653Z,-5.14
2019-02-25T04:17:46.378Z,-5.11
2019-02-25T04:18:46.292Z,-5.11
2019-02-25T04:19:46.662Z,-5.11
2019-02-25T04:20:46.575Z,-5.18
2019-02-25T04:21:46.391Z,-5.17
2019-02-25T04:22:46.518Z,-5.2
2019-02-25T04:23:46.492Z,-5.21
2019-02-25T04:24:46.807Z,-5.26
2019-02-25T04:25:46.100Z,-5.34
2019-02-25T04:26:46.275Z,-5.35
2019-02-25T04:27:46.093Z,-5.44
2019-02-25T04:28:48.146Z,-5.43
2019-02-25T04:29:46.536Z,-5.48
2019-02-25T04:30:46.551Z,-5.45
2019-02-25T04:31:46.350Z,-5.44
2019-02-25T04:32:46.332Z,-5.58
2019-02-25T04:33:48.177Z,-5.55
2019-02-25T04:34:46.351Z,-5.53
2019-02-25T04:35:46.362Z,-5.55
2019-02-25T04:36:46.546Z,-5.43
2019-02-25T04:37:46.227Z,-5.48
2019-02-25T04:38:46.423Z,-5.53
2019-02-25T04:39:46.666Z,-5.48
2019-02-25T04:40:46.420Z,-5.49
2019-02-25T04:41:46.717Z,-5.45
2019-02-25T04:42:46.262Z,-5.46
2019-02-25T04:43:46.352Z,-5.59
2019-02-25T04:44:46.363Z,-5.47
2019-02-25T04:45:46.977Z,-5.6
2019-02-25T04:46:46.433Z,-5.33
2019-02-25T04:47:46.548Z,-5.37
2019-02-25T04:48:46.388Z,-5.33
2019-02-25T04:49:46.319Z,-5.29
2019-02-25T04:50:48.070Z,-5.3
2019-02-25T04:51:46.203Z,-5.24
2019-02-25T04:52:46.236Z,-5.29
2019-02-25T04:53:48.067Z,-5.28
2019-02-25T04:54:46.610Z,-5.34
2019-02-25T04:55:46.430Z,-5.37
2019-02-25T04:56:47.070Z,-5.32
2019-02-25T04:57:48.090Z,-5.4
2019-02-25T04:58:46.423Z,-5.35
2019-02-25T04:59:46.329Z,-5.21
2019-02-25T05:00:46.233Z,-5.26
2019-02-25T05:01:47.479Z,-5.22
2019-02-25T05:02:48.069Z,-5.17
2019-02-25T05:03:46.309Z,-5.22
2019-02-25T05:04:46.554Z,-5.29
2019-02-25T05:05:46.472Z,-5.31
2019-02-25T05:06:46.385Z,-5.21
2019-02-25T05:07:46.465Z,-5.2
2019-02-25T05:08:46.575Z,-5.31
2019-02-25T05:09:46.494Z,-5.36
2019-02-25T05:10:47.209Z,-5.39
2019-02-25T05:11:46.713Z,-5.33
2019-02-25T05:12:47.235Z,-5.28
2019-02-25T05:13:46.258Z,-5.23
2019-02-25T05:14:48.045Z,-5.24
2019-02-25T05:15:46.751Z,-5.37
2019-02-25T05:16:46.303Z,-5.25
2019-02-25T05:17:46.580Z,-5.23
2019-02-25T05:18:46.436Z,-5.26
2019-02-25T05:19:46.663Z,-5.2
2019-02-25T05:20:46.360Z,-5.13
2019-02-25T05:21:46.163Z,-5.2
2019-02-25T05:22:46.898Z,-5.17
2019-02-25T05:23:46.281Z,-5.25
2019-02-25T05:24:46.336Z,-5.28
2019-02-25T05:25:46.413Z,-5.26
2019-02-25T05:26:46.243Z,-5.41
2019-02-25T05:27:46.328Z,-5.44
2019-02-25T05:28:48.011Z,-5.47
2019-02-25T05:29:46.327Z,-5.5
2019-02-25T05:30:46.477Z,-5.63
2019-02-25T05:31:46.225Z,-5.43
2019-02-25T05:32:46.375Z,-5.49
2019-02-25T05:33:46.746Z,-5.49
2019-02-25T05:34:47.990Z,-5.44
2019-02-25T05:35:46.159Z,-5.54
2019-02-25T05:36:46.145Z,-5.49
2019-02-25T05:37:46.402Z,-5.45
2019-02-25T05:38:46.589Z,-5.41
2019-02-25T05:39:46.779Z,-5.51
2019-02-25T05:40:46.490Z,-5.45
2019-02-25T05:41:46.143Z,-5.42
2019-02-25T05:42:46.286Z,-5.46
2019-02-25T05:43:46.502Z,-5.33
2019-02-25T05:44:46.440Z,-5.32
2019-02-25T05:45:46.626Z,-5.28
2019-02-25T05:46:46.836Z,-5.37
2019-02-25T05:47:46.358Z,-5.44
2019-02-25T05:48:46.562Z,-5.43
2019-02-25T05:49:46.339Z,-5.4
2019-02-25T05:50:49.758Z,-5.33
2019-02-25T05:51:46.121Z,-5.36
2019-02-25T05:52:47.081Z,-5.38
2019-02-25T05:53:46.481Z,-5.33
2019-02-25T05:54:46.501Z,-5.33
2019-02-25T05:55:46.075Z,-5.32
2019-02-25T05:56:46.726Z,-5.39
2019-02-25T05:57:46.316Z,-5.29
2019-02-25T05:58:46.537Z,-5.36
2019-02-25T05:59:46.734Z,-5.38
2019-02-25T06:00:46.343Z,-5.37
2019-02-25T06:01:46.171Z,-5.39
2019-02-25T06:02:46.405Z,-5.33
2019-02-25T06:03:46.426Z,-5.31
2019-02-25T06:04:46.549Z,-5.27
2019-02-25T06:05:47.950Z,-5.2
2019-02-25T06:06:46.859Z,-5.27
2019-02-25T06:07:47.965Z,-5.24
2019-02-25T06:08:47.950Z,-5.22
2019-02-25T06:09:46.176Z,-5.28
2019-02-25T06:10:46.195Z,-5.37
2019-02-25T06:11:46.222Z,-5.32
2019-02-25T06:12:46.158Z,-5.25
2019-02-25T06:13:46.396Z,-5.18
2019-02-25T06:14:46.247Z,-5.34
2019-02-25T06:15:46.089Z,-5.3
2019-02-25T06:16:47.335Z,-5.32
2019-02-25T06:17:47.222Z,-5.38
2019-02-25T06:18:47.947Z,-5.31
2019-02-25T06:19:47.920Z,-5.35
2019-02-25T06:20:46.076Z,-5.33
2019-02-25T06:21:46.346Z,-5.39
2019-02-25T06:22:46.120Z,-5.34
2019-02-25T06:23:46.141Z,-5.63
2019-02-25T06:24:46.358Z,-5.46
2019-02-25T06:25:46.159Z,-5.47
2019-02-25T06:26:46.492Z,-5.48
2019-02-25T06:27:47.052Z,-5.49
2019-02-25T06:28:46.489Z,-5.41
2019-02-25T06:29:46.601Z,-5.4
2019-02-25T06:30:46.324Z,-5.4
2019-02-25T06:31:46.524Z,-5.39
2019-02-25T06:32:46.108Z,-5.44
2019-02-25T06:33:47.837Z,-5.46
2019-02-25T06:34:46.445Z,-5.43
2019-02-25T06:35:46.567Z,-5.44
2019-02-25T06:36:46.191Z,-5.5
2019-02-25T06:37:46.217Z,-5.49
2019-02-25T06:38:46.577Z,-5.45
2019-02-25T06:39:47.059Z,-5.45
2019-02-25T06:40:46.121Z,-5.42
2019-02-25T06:41:46.084Z,-5.4
2019-02-25T06:42:46.124Z,-5.38
2019-02-25T06:43:46.185Z,-5.33
2019-02-25T06:44:46.127Z,-5.37
2019-02-25T06:45:46.166Z,-5.32
2019-02-25T06:46:46.980Z,-5.27
2019-02-25T06:47:47.881Z,-5.3
2019-02-25T06:48:46.422Z,-5.38
2019-02-25T06:49:46.074Z,-5.43
2019-02-25T06:50:46.083Z,-5.41
2019-02-25T06:51:46.341Z,-5.39
2019-02-25T06:52:46.183Z,-5.44
2019-02-25T06:53:46.320Z,-5.39
2019-02-25T06:54:46.120Z,-5.41
2019-02-25T06:55:46.631Z,-5.39
2019-02-25T06:56:46.191Z,-5.44
2019-02-25T06:57:46.494Z,-5.42
2019-02-25T06:58:46.281Z,-5.43
2019-02-25T06:59:46.076Z,-5.44
2019-02-25T07:00:47.863Z,-5.51
2019-02-25T07:01:47.332Z,-5.36
2019-02-25T07:02:46.144Z,-5.4
2019-02-25T07:03:46.425Z,-5.42
2019-02-25T07:04:46.030Z,-5.42
2019-02-25T07:05:46.541Z,-5.43
2019-02-25T07:06:47.841Z,-5.48
2019-02-25T07:07:46.295Z,-5.38
2019-02-25T07:08:46.153Z,-5.45
2019-02-25T07:09:46.045Z,-5.34
2019-02-25T07:10:46.044Z,-5.49
2019-02-25T07:11:46.565Z,-5.58
2019-02-25T07:12:46.181Z,-5.41
2019-02-25T07:13:46.140Z,-5.49
2019-02-25T07:14:47.689Z,-5.32
2019-02-25T07:15:46.068Z,-5.42
2019-02-25T07:16:47.330Z,-5.36
2019-02-25T07:17:46.204Z,-5.25
2019-02-25T07:18:47.907Z,-5.27
2019-02-25T07:19:45.856Z,-5.29
2019-02-25T07:20:45.985Z,-5.38
2019-02-25T07:21:46.684Z,-5.29
2019-02-25T07:22:46.758Z,-5.24
2019-02-25T07:23:46.117Z,-5.3
2019-02-25T07:24:53.263Z,-5.26
2019-02-25T07:25:46.461Z,-5.24
2019-02-25T07:26:46.107Z,-5.29
2019-02-25T07:27:46.269Z,-5.18
2019-02-25T07:28:46.118Z,-5.05
2019-02-25T07:29:46.059Z,-5.05
2019-02-25T07:30:46.405Z,-5.06
2019-02-25T07:31:46.014Z,-5.23
2019-02-25T07:32:46.511Z,-5.09
2019-02-25T07:33:46.076Z,-4.91
2019-02-25T07:34:46.599Z,-4.9
2019-02-25T07:35:46.107Z,-4.91
2019-02-25T07:36:46.436Z,-4.88
2019-02-25T07:37:46.142Z,-4.83
2019-02-25T07:38:46.341Z,-4.93
2019-02-25T07:39:46.056Z,-4.84
2019-02-25T07:40:46.173Z,-4.93
2019-02-25T07:41:46.307Z,-4.9
2019-02-25T07:42:46.377Z,-5.03
2019-02-25T07:43:46.892Z,-4.93
2019-02-25T07:44:47.099Z,-4.91
2019-02-25T07:45:47.816Z,-4.82
2019-02-25T07:46:46.290Z,-4.84
2019-02-25T07:47:46.092Z,-4.77
2019-02-25T07:48:46.976Z,-4.73
2019-02-25T07:49:46.215Z,-4.74
2019-02-25T07:50:47.714Z,-4.63
2019-02-25T07:51:46.143Z,-4.58
2019-02-25T07:52:46.310Z,-4.61
2019-02-25T07:53:46.046Z,-4.58
2019-02-25T07:54:46.246Z,-4.45
2019-02-25T07:55:46.071Z,-4.45
2019-02-25T07:56:46.157Z,-4.47
2019-02-25T07:57:46.158Z,-4.57
2019-02-25T07:58:46.026Z,-4.57
2019-02-25T07:59:46.486Z,-4.46
2019-02-25T08:00:46.195Z,-4.41
2019-02-25T08:01:46.038Z,-4.37
2019-02-25T08:02:45.920Z,-4.33
2019-02-25T08:03:46.201Z,-4.37
2019-02-25T08:04:46.035Z,-4.28
2019-02-25T08:05:47.006Z,-4.4
2019-02-25T08:06:47.765Z,-4.34
2019-02-25T08:07:46.052Z,-4.32
2019-02-25T08:08:46.089Z,-4.33
2019-02-25T08:09:46.459Z,-4.29
2019-02-25T08:10:46.035Z,-4.29
2019-02-25T08:11:46.158Z,-4.32
2019-02-25T08:12:46.265Z,-4.33
2019-02-25T08:13:46.074Z,-4.34
2019-02-25T08:14:46.276Z,-4.32
2019-02-25T08:15:46.146Z,-4.29
2019-02-25T08:16:46.094Z,-4.4
2019-02-25T08:17:46.026Z,-4.49
2019-02-25T08:18:46.024Z,-4.33
2019-02-25T08:19:46.209Z,-4.33
2019-02-25T08:20:46.823Z,-4.29
2019-02-25T08:21:45.994Z,-4.48
2019-02-25T08:22:46.442Z,-4.49
2019-02-25T08:23:46.051Z,-4.54
2019-02-25T08:24:47.728Z,-4.51
2019-02-25T08:25:46.244Z,-4.56
2019-02-25T08:26:46.764Z,-4.65
2019-02-25T08:27:45.953Z,-4.56
2019-02-25T08:28:45.943Z,-4.55
2019-02-25T08:29:46.300Z,-4.59
2019-02-25T08:30:46.349Z,-4.73
2019-02-25T08:31:45.952Z,-4.85
2019-02-25T08:32:46.847Z,-4.72
2019-02-25T08:33:46.194Z,-4.69
2019-02-25T08:34:45.974Z,-4.76
2019-02-25T08:35:45.994Z,-4.94
2019-02-25T08:36:46.821Z,-4.82
2019-02-25T08:37:47.395Z,-4.66
2019-02-25T08:38:46.231Z,-4.38
2019-02-25T08:39:46.135Z,-4.49
2019-02-25T08:40:45.840Z,-4.47
2019-02-25T08:41:46.145Z,-4.59
2019-02-25T08:42:46.317Z,-4.75
2019-02-25T08:43:46.104Z,-4.59
2019-02-25T08:44:46.068Z,-4.61
2019-02-25T08:45:45.903Z,-4.6
2019-02-25T08:46:46.079Z,-4.67
2019-02-25T08:47:46.181Z,-4.49
2019-02-25T08:48:46.409Z,-4.54
2019-02-25T08:49:46.768Z,-4.42
2019-02-25T08:50:46.199Z,-4.44
2019-02-25T08:51:45.989Z,-4.42
2019-02-25T08:52:47.700Z,-4.42
2019-02-25T08:53:46.138Z,-4.71
2019-02-25T08:54:45.874Z,-4.78
2019-02-25T08:55:46.128Z,-4.84
2019-02-25T08:56:46.139Z,-4.67
2019-02-25T08:57:46.067Z,-4.6
2019-02-25T08:58:45.825Z,-4.89
2019-02-25T08:59:45.984Z,-4.65
2019-02-25T09:00:47.690Z,-4.5
2019-02-25T09:01:45.884Z,-4.48
2019-02-25T09:02:45.868Z,-4.57
2019-02-25T09:03:46.094Z,-4.51
2019-02-25T09:04:46.698Z,-4.46
2019-02-25T09:05:45.982Z,-4.38
2019-02-25T09:06:46.108Z,-4.25
2019-02-25T09:07:45.836Z,-4.18
2019-02-25T09:08:46.754Z,-4.11
2019-02-25T09:09:45.866Z,-4.11
2019-02-25T09:10:47.068Z,-4.06
2019-02-25T09:11:46.243Z,-3.91
2019-02-25T09:12:45.843Z,-3.93
2019-02-25T09:13:46.290Z,-4.07
2019-02-25T09:14:46.267Z,-4.13
2019-02-25T09:15:45.858Z,-4.08
2019-02-25T09:16:47.418Z,-4.11
2019-02-25T09:17:46.187Z,-3.9
2019-02-25T09:18:46.196Z,-3.96
2019-02-25T09:19:45.827Z,-4
2019-02-25T09:20:46.210Z,-4.03
2019-02-25T09:21:46.108Z,-4
2019-02-25T09:22:45.888Z,-3.84
2019-02-25T09:23:46.227Z,-3.89
2019-02-25T09:24:45.791Z,-3.88
2019-02-25T09:25:45.971Z,-4.05
2019-02-25T09:26:46.052Z,-3.93
2019-02-25T09:27:46.582Z,-3.82
2019-02-25T09:28:46.061Z,-3.81
2019-02-25T09:29:47.635Z,-4.02
2019-02-25T09:30:46.075Z,-4.08
2019-02-25T09:31:46.192Z,-4.06
2019-02-25T09:32:46.437Z,-4.02
2019-02-25T09:33:46.095Z,-4.2
2019-02-25T09:34:47.402Z,-4.26
2019-02-25T09:35:46.005Z,-4.3
2019-02-25T09:36:46.120Z,-4.38
2019-02-25T09:37:45.945Z,-4.36
2019-02-25T09:38:47.362Z,-4.35
2019-02-25T09:39:45.884Z,-4.36
2019-02-25T09:40:45.739Z,-4.51
2019-02-25T09:41:46.143Z,-4.58
2019-02-25T09:42:45.809Z,-4.35
2019-02-25T09:43:47.616Z,-4.43
2019-02-25T09:44:45.812Z,-4.67
2019-02-25T09:45:45.803Z,-4.59
2019-02-25T09:46:46.314Z,-4.49
2019-02-25T09:47:45.805Z,-4.63
2019-02-25T09:48:46.103Z,-4.59
2019-02-25T09:49:46.088Z,-4.51
2019-02-25T09:50:45.787Z,-4.71
2019-02-25T09:51:45.763Z,-4.71
2019-02-25T09:52:45.732Z,-4.96
2019-02-25T09:53:46.616Z,-4.82
2019-02-25T09:54:45.990Z,-4.88
2019-02-25T09:55:46.027Z,-4.71
2019-02-25T09:56:46.036Z,-4.58
2019-02-25T09:57:46.168Z,-4.53
2019-02-25T09:58:46.145Z,-4.6
2019-02-25T09:59:46.611Z,-4.53
2019-02-25T10:00:46.446Z,-5.38
2019-02-25T10:01:45.794Z,-4.97
2019-02-25T10:02:45.735Z,-4.83
2019-02-25T10:03:46.078Z,-4.97
2019-02-25T10:04:46.096Z,-4.91
2019-02-25T10:05:46.564Z,-5.06
2019-02-25T10:06:46.011Z,-5.53
2019-02-25T10:07:46.219Z,-5.34
2019-02-25T10:08:46.789Z,-5.6
2019-02-25T10:09:46.226Z,-5.59
2019-02-25T10:10:45.740Z,-5.76
2019-02-25T10:11:45.825Z,-5.79
2019-02-25T10:12:45.844Z,-5.6
2019-02-25T10:13:47.114Z,-5.46
2019-02-25T10:14:49.787Z,-5.21
2019-02-25T10:15:46.379Z,-5.5
2019-02-25T10:16:46.821Z,-5.41
2019-02-25T10:17:47.008Z,-5.53
2019-02-25T10:18:45.890Z,-5.44
2019-02-25T10:19:45.712Z,-5.57
2019-02-25T10:20:45.805Z,-5.3
2019-02-25T10:21:46.194Z,-5.47
2019-02-25T10:22:45.842Z,-5.06
2019-02-25T10:23:45.776Z,-5.67
2019-02-25T10:24:46.028Z,-5.6
2019-02-25T10:25:45.911Z,-5.35
2019-02-25T10:26:46.646Z,-5.42
2019-02-25T10:27:46.598Z,-5.35
2019-02-25T10:28:45.830Z,-5.36
2019-02-25T10:29:45.754Z,-5.28
2019-02-25T10:30:53.429Z,-5.41
2019-02-25T10:31:46.378Z,-5.44
2019-02-25T10:32:46.027Z,-4.96
2019-02-25T10:33:46.089Z,-4.92
2019-02-25T10:34:45.746Z,-5.01
2019-02-25T10:35:45.985Z,-5.22
2019-02-25T10:36:52.483Z,-5.08
2019-02-25T10:37:46.107Z,-4.97
2019-02-25T10:38:45.512Z,-5.69
2019-02-25T10:39:51.658Z,-5.86
2019-02-25T10:40:53.866Z,-5.5
2019-02-25T10:41:45.665Z,-5.85
2019-02-25T10:42:45.777Z,-6.02
2019-02-25T10:43:46.145Z,-5.52
2019-02-25T10:44:46.141Z,-5.34
2019-02-25T10:45:46.413Z,-5.79
2019-02-25T10:46:49.261Z,-5.94
2019-02-25T10:47:58.575Z,-5.78
2019-02-25T10:48:58.759Z,-5.49
2019-02-25T10:49:45.681Z,-5.74
2019-02-25T10:50:45.848Z,-5.58
2019-02-25T10:51:46.315Z,-5.84
2019-02-25T10:52:49.770Z,-6.49
2019-02-25T10:53:53.786Z,-6.24
2019-02-25T10:54:56.151Z,-6.31
2019-02-25T10:55:53.127Z,-6.02
2019-02-25T10:56:55.809Z,-6.29
2019-02-25T10:57:45.722Z,-6.55
2019-02-25T10:58:47.279Z,-6.11
2019-02-25T10:59:46.560Z,-6.15
2019-02-25T11:00:46.229Z,-6.64
2019-02-25T11:01:47.669Z,-6.26
2019-02-25T11:02:55.853Z,-6.16
2019-02-25T11:03:54.367Z,-6.26
2019-02-25T11:04:54.010Z,-6.06
2019-02-25T11:05:45.734Z,-5.97
2019-02-25T11:06:45.756Z,-6.38
2019-02-25T11:07:46.100Z,-6.15
2019-02-25T11:08:46.764Z,-5.77
2019-02-25T11:09:50.556Z,-6
2019-02-25T11:10:54.912Z,-6.45
2019-02-25T11:11:45.678Z,-6.12
2019-02-25T11:12:45.760Z,-5.97
2019-02-25T11:13:45.746Z,-5.77
2019-02-25T11:14:46.042Z,-5.72
2019-02-25T11:15:48.582Z,-5.94
2019-02-25T11:16:52.337Z,-5.69
2019-02-25T11:17:53.887Z,-5.46
2019-02-25T11:18:46.087Z,-5.43
2019-02-25T11:19:47.025Z,-5.64
2019-02-25T11:20:46.711Z,-5.44
2019-02-25T11:21:45.823Z,-5.15
2019-02-25T11:22:48.686Z,-5.43
2019-02-25T11:23:53.569Z,-5.12
2019-02-25T11:24:57.284Z,-4.86
2019-02-25T11:25:46.216Z,-5.09
2019-02-25T11:26:47.474Z,-4.86
2019-02-25T11:27:47.464Z,-4.82
2019-02-25T11:28:45.732Z,-4.81
2019-02-25T11:29:48.643Z,-4.74
2019-02-25T11:30:54.025Z,-4.72
2019-02-25T11:31:53.907Z,-4.75
2019-02-25T11:32:45.696Z,-4.55
2019-02-25T11:33:46.593Z,-4.81
2019-02-25T11:34:45.975Z,-4.42
2019-02-25T11:35:48.239Z,-4.63
2019-02-25T11:36:45.725Z,-4.56
2019-02-25T11:37:47.366Z,-4.3
2019-02-25T11:38:45.605Z,-4.47
2019-02-25T11:39:47.848Z,-4.09
2019-02-25T11:40:46.528Z,-4.5
2019-02-25T11:41:46.646Z,-4.04
2019-02-25T11:42:45.426Z,-3.95
2019-02-25T11:43:55.383Z,-3.81
2019-02-25T11:44:45.637Z,-4.07
2019-02-25T11:45:45.863Z,-3.92
2019-02-25T11:46:46.061Z,-3.66
2019-02-25T11:47:46.490Z,-3.74
2019-02-25T11:48:45.432Z,-3.91
2019-02-25T11:49:46.092Z,-3.52
2019-02-25T11:50:47.122Z,-3.59
2019-02-25T11:51:45.894Z,-3.72
2019-02-25T11:52:45.823Z,-3.7
2019-02-25T11:53:46.178Z,-3.75
2019-02-25T11:54:47.433Z,-3.73
2019-02-25T11:55:45.755Z,-3.52
2019-02-25T11:56:45.648Z,-3.38
2019-02-25T11:57:45.632Z,-3.46
2019-02-25T11:58:45.831Z,-3.1
2019-02-25T11:59:45.678Z,-3.01
2019-02-25T12:00:45.653Z,-3.27
2019-02-25T12:01:45.656Z,-3.19
2019-02-25T12:02:46.483Z,-3.09
2019-02-25T12:03:47.018Z,-3.02
2019-02-25T12:04:45.782Z,-3.14
2019-02-25T12:05:45.668Z,-3.09
2019-02-25T12:06:45.892Z,-2.93
2019-02-25T12:07:45.716Z,-3.13
2019-02-25T12:08:46.217Z,-2.95
2019-02-25T12:09:45.372Z,-2.59
2019-02-25T12:10:45.726Z,-2.67
2019-02-25T12:11:45.766Z,-2.85
2019-02-25T12:12:46.446Z,-2.66
2019-02-25T12:13:45.665Z,-2.69
2019-02-25T12:14:46.053Z,-2.88
2019-02-25T12:15:45.682Z,-2.86
2019-02-25T12:16:47.391Z,-2.74
2019-02-25T12:17:46.289Z,-2.29
2019-02-25T12:18:47.404Z,-2.34
2019-02-25T12:19:45.519Z,-2.34
2019-02-25T12:20:45.840Z,-2.07
2019-02-25T12:21:45.877Z,-2.24
2019-02-25T12:22:45.894Z,-1.96
2019-02-25T12:23:45.621Z,-2.04
2019-02-25T12:24:46.450Z,-2.04
2019-02-25T12:25:46.233Z,-2.13
2019-02-25T12:26:46.118Z,-2.04
2019-02-25T12:27:45.558Z,-1.86
2019-02-25T12:28:47.393Z,-1.82
2019-02-25T12:29:45.728Z,-2.05
2019-02-25T12:30:45.955Z,-2.02
2019-02-25T12:31:45.749Z,-1.58
2019-02-25T12:32:45.625Z,-1.55
2019-02-25T12:33:46.578Z,-1.48
2019-02-25T12:34:45.668Z,-1.58
2019-02-25T12:35:45.523Z,-1.61
2019-02-25T12:36:45.593Z,-1.41
2019-02-25T12:37:45.713Z,-1.55
2019-02-25T12:38:45.598Z,-1.31
2019-02-25T12:39:45.809Z,-1.3
2019-02-25T12:40:45.660Z,-1.32
2019-02-25T12:41:47.365Z,-1.12
2019-02-25T12:42:47.367Z,-1.1
2019-02-25T12:43:45.658Z,-1.37
2019-02-25T12:44:46.380Z,-1.39
2019-02-25T12:45:45.672Z,-0.96
2019-02-25T12:46:46.367Z,-1.05
2019-02-25T12:47:45.488Z,-0.98
2019-02-25T12:48:45.495Z,-1.16
2019-02-25T12:49:45.646Z,-1.2
2019-02-25T12:50:47.352Z,-0.9
2019-02-25T12:51:45.828Z,-0.87
2019-02-25T12:52:45.786Z,-0.76
2019-02-25T12:53:45.594Z,-0.62
2019-02-25T12:54:45.514Z,-0.59
2019-02-25T12:55:45.688Z,-0.84